Time;durP1;ratioP1;P1;durP2;ratioP2;P2;SDS_P1;SDS_P2;PMS_P1;PMS_P2;Temp;Humidity;BMP_temperature;BMP_pressure;BME280_temperature;BME280_humidity;BME280_pressure;Samples;Min_cycle;Max_cycle;Signal;HPM_P1;HPM_P2
2021/07/17 00:00:09;;;;;;;22.33;8.38;;;;;;;21.33;61.40;100620.22;6067307;23;20042;-87
2021/07/17 00:02:35;;;;;;;25.52;8.77;;;;;;;21.34;61.07;100621.91;6067272;23;20030;-87
2021/07/17 00:05:09;;;;;;;28.10;9.52;;;;;;;21.34;61.56;100619.22;6065263;23;20344;-86
2021/07/17 00:07:36;;;;;;;27.45;8.95;;;;;;;21.35;61.18;100612.88;6065653;23;20347;-86
2021/07/17 00:10:09;;;;;;;23.88;8.02;;;;;;;21.33;61.50;100622.03;6065495;23;20046;-86
2021/07/17 00:12:36;;;;;;;26.15;8.10;;;;;;;21.34;61.18;100618.38;6065734;23;20022;-86
2021/07/17 00:15:04;;;;;;;21.52;8.63;;;;;;;21.32;61.00;100618.53;6065360;23;20046;-86
2021/07/17 00:17:30;;;;;;;22.92;7.68;;;;;;;21.31;61.18;100624.03;6067177;23;20023;-87
2021/07/17 00:19:57;;;;;;;24.13;8.23;;;;;;;21.29;61.28;100623.28;6065750;23;20023;-87
2021/07/17 00:22:24;;;;;;;24.88;8.48;;;;;;;21.28;61.48;100632.31;6066644;23;20031;-86
2021/07/17 00:24:50;;;;;;;20.50;7.63;;;;;;;21.28;61.31;100626.97;6065060;23;20023;-87
2021/07/17 00:27:17;;;;;;;24.13;7.65;;;;;;;21.27;61.46;100617.25;6064997;23;20023;-87
2021/07/17 00:29:45;;;;;;;22.08;7.65;;;;;;;21.26;61.71;100623.59;6067565;23;20033;-86
2021/07/17 00:32:11;;;;;;;19.65;7.78;;;;;;;21.25;61.43;100621.88;6066751;23;20052;-86
2021/07/17 00:34:38;;;;;;;24.13;7.93;;;;;;;21.24;61.85;100629.06;6066697;23;20097;-86
2021/07/17 00:37:05;;;;;;;21.45;7.13;;;;;;;21.25;61.61;100621.88;6066964;23;20026;-86
2021/07/17 00:39:31;;;;;;;19.58;7.57;;;;;;;21.24;61.56;100628.22;6065462;23;20024;-87
2021/07/17 00:41:58;;;;;;;21.85;7.63;;;;;;;21.23;61.81;100624.69;6067177;23;20082;-86
2021/07/17 00:44:25;;;;;;;24.67;7.72;;;;;;;21.22;61.88;100634.56;6065204;23;20031;-85
2021/07/17 00:46:53;;;;;;;22.75;7.97;;;;;;;21.22;62.01;100628.34;6066292;23;20031;-87
2021/07/17 00:49:21;;;;;;;16.58;7.57;;;;;;;21.21;61.93;100621.31;6066857;23;20030;-86
2021/07/17 00:51:48;;;;;;;20.23;7.63;;;;;;;21.20;61.99;100620.44;6066960;23;20030;-87
2021/07/17 00:54:19;;;;;;;26.52;7.47;;;;;;;21.19;61.56;100623.25;6065028;23;20023;-86
2021/07/17 00:56:48;;;;;;;20.52;7.40;;;;;;;21.17;62.00;100620.75;6065241;23;20033;-87
2021/07/17 00:59:18;;;;;;;22.08;7.80;;;;;;;21.14;61.98;100626.34;6064850;23;20037;-87
2021/07/17 01:01:48;;;;;;;23.25;7.68;;;;;;;21.13;61.67;100626.50;6065229;23;20041;-85
2021/07/17 01:04:15;;;;;;;24.10;7.85;;;;;;;21.11;61.83;100629.31;6065080;23;20050;-88
2021/07/17 01:06:43;;;;;;;18.13;7.47;;;;;;;21.07;62.04;100628.72;6066917;23;20026;-86
2021/07/17 01:09:09;;;;;;;17.27;6.60;;;;;;;21.06;62.07;100627.03;6064951;23;20023;-86
2021/07/17 01:11:39;;;;;;;24.27;7.57;;;;;;;21.05;62.13;100619.97;6066992;23;20478;-87
2021/07/17 01:14:06;;;;;;;20.88;6.93;;;;;;;21.06;62.29;100618.16;6066197;23;20486;-85
2021/07/17 01:16:36;;;;;;;26.35;8.48;;;;;;;21.05;62.21;100616.47;6066559;23;20078;-86
2021/07/17 01:19:03;;;;;;;23.25;7.05;;;;;;;21.04;62.40;100610.25;6065348;23;20328;-87
2021/07/17 01:21:30;;;;;;;21.63;7.60;;;;;;;21.05;62.15;100616.47;6065356;23;20034;-87
2021/07/17 01:23:57;;;;;;;22.83;7.47;;;;;;;21.05;62.18;100609.25;6065120;23;20030;-85
2021/07/17 01:26:25;;;;;;;20.13;7.18;;;;;;;21.05;62.66;100611.13;6064823;23;20026;-86
2021/07/17 01:28:51;;;;;;;18.33;7.55;;;;;;;21.04;62.51;100612.94;6066587;23;20042;-86
2021/07/17 01:31:18;;;;;;;24.38;6.72;;;;;;;21.03;62.54;100608.56;6066516;23;20479;-85
2021/07/17 01:33:46;;;;;;;23.48;7.15;;;;;;;21.03;62.50;100613.06;6067417;23;20023;-86
2021/07/17 01:36:13;;;;;;;23.50;7.68;;;;;;;21.02;62.48;100606.88;6068165;23;20038;-86
2021/07/17 01:38:41;;;;;;;17.80;6.47;;;;;;;21.01;62.42;100617.72;6067140;23;20026;-86
2021/07/17 01:41:09;;;;;;;21.77;7.78;;;;;;;21.00;62.52;100608.84;6067058;23;20027;-86
2021/07/17 01:43:36;;;;;;;20.25;7.38;;;;;;;21.01;62.78;100604.34;6068343;23;20019;-86
2021/07/17 01:46:03;;;;;;;24.55;7.18;;;;;;;21.00;62.50;100608.84;6066922;23;20033;-85
2021/07/17 01:48:29;;;;;;;24.13;7.25;;;;;;;21.00;62.72;100605.31;6067735;23;20033;-85
2021/07/17 01:50:56;;;;;;;22.67;7.57;;;;;;;20.99;62.52;100617.84;6066683;23;20463;-85
2021/07/17 01:53:23;;;;;;;16.33;6.82;;;;;;;20.99;62.48;100617.84;6068090;23;20038;-86
2021/07/17 01:55:49;;;;;;;26.65;7.80;;;;;;;20.98;62.79;100609.94;6068077;23;20022;-85
2021/07/17 01:58:16;;;;;;;21.10;7.30;;;;;;;20.99;62.43;100606.28;6068185;23;20030;-85
2021/07/17 02:00:43;;;;;;;23.33;7.57;;;;;;;20.97;62.55;100611.75;6068289;23;20034;-86
2021/07/17 02:03:11;;;;;;;21.08;6.63;;;;;;;20.94;62.61;100601.34;6067841;23;20038;-85
2021/07/17 02:05:38;;;;;;;25.23;7.75;;;;;;;20.93;62.45;100605.00;6065983;23;20038;-86
2021/07/17 02:08:05;;;;;;;23.27;7.82;;;;;;;20.92;62.69;100606.84;6067705;23;20026;-87
2021/07/17 02:10:34;;;;;;;18.33;6.78;;;;;;;20.89;62.70;100606.25;6065081;23;20030;-86
2021/07/17 02:13:13;;;;;;;22.98;7.47;;;;;;;20.82;63.30;100606.75;6067830;23;20055;-86
2021/07/17 02:15:47;;;;;;;22.60;7.57;;;;;;;20.83;62.88;100605.75;6067457;23;20026;-87
2021/07/17 02:18:20;;;;;;;20.10;6.82;;;;;;;20.82;62.56;100611.28;6066359;23;20625;-88
2021/07/17 02:20:47;;;;;;;20.35;7.03;;;;;;;20.80;62.56;100608.72;6066454;23;20026;-86
2021/07/17 02:23:13;;;;;;;23.30;7.78;;;;;;;20.77;62.85;100600.09;6066629;23;20641;-86
2021/07/17 02:25:40;;;;;;;23.92;7.45;;;;;;;20.73;62.51;100598.66;6067242;23;20375;-86
2021/07/17 02:28:07;;;;;;;20.27;7.63;;;;;;;20.70;62.77;100602.47;6067760;23;20034;-87
2021/07/17 02:30:34;;;;;;;21.38;8.15;;;;;;;20.66;63.17;100591.19;6068090;23;20033;-87
2021/07/17 02:33:00;;;;;;;23.48;7.10;;;;;;;20.64;62.96;100603.00;6068406;23;20036;-86
2021/07/17 02:35:27;;;;;;;27.67;7.70;;;;;;;20.60;62.99;100602.44;6066071;23;20023;-86
2021/07/17 02:37:54;;;;;;;19.77;7.00;;;;;;;20.57;63.06;100597.34;6067540;23;20023;-86
2021/07/17 02:40:20;;;;;;;21.20;6.93;;;;;;;20.55;63.33;100596.63;6067926;23;20034;-85
2021/07/17 02:42:47;;;;;;;23.30;7.30;;;;;;;20.53;63.32;100596.75;6066447;23;20031;-86
2021/07/17 02:45:14;;;;;;;23.40;7.45;;;;;;;20.52;63.28;100597.72;6066563;23;20038;-87
2021/07/17 02:47:40;;;;;;;20.85;6.07;;;;;;;20.49;63.52;100603.38;6066214;23;20759;-86
2021/07/17 02:50:09;;;;;;;26.13;6.60;;;;;;;20.48;63.45;100608.84;6065819;23;20042;-84
2021/07/17 02:52:36;;;;;;;21.15;6.72;;;;;;;20.47;63.21;100605.31;6067793;23;20046;-85
2021/07/17 02:55:04;;;;;;;26.85;7.25;;;;;;;20.46;63.38;100605.44;6067060;23;20034;-86
2021/07/17 02:57:31;;;;;;;24.70;7.28;;;;;;;20.43;63.53;100602.06;6066212;23;20034;-86
2021/07/17 02:59:57;;;;;;;21.90;6.32;;;;;;;20.41;63.60;100614.69;6066250;23;20042;-86
2021/07/17 03:02:25;;;;;;;29.55;7.45;;;;;;;20.40;63.49;100615.69;6067416;23;20078;-86
2021/07/17 03:04:51;;;;;;;20.40;7.35;;;;;;;20.39;63.62;100614.00;6066017;23;20097;-86
2021/07/17 03:07:18;;;;;;;19.60;6.78;;;;;;;20.39;63.62;100615.81;6067369;23;20034;-85
2021/07/17 03:09:45;;;;;;;18.60;6.90;;;;;;;20.37;63.96;100621.28;6067616;23;20033;-86
2021/07/17 03:12:11;;;;;;;22.85;6.95;;;;;;;20.36;63.79;100616.06;6066216;23;20074;-86
2021/07/17 03:14:38;;;;;;;20.05;6.13;;;;;;;20.35;63.60;100609.88;6065628;23;20027;-86
2021/07/17 03:17:05;;;;;;;25.60;7.10;;;;;;;20.34;63.47;100610.00;6067464;23;20023;-86
2021/07/17 03:19:31;;;;;;;19.48;6.75;;;;;;;20.34;63.56;100607.34;6067377;23;20027;-85
2021/07/17 03:21:58;;;;;;;21.50;6.60;;;;;;;20.33;63.82;100609.16;6066082;23;20034;-87
2021/07/17 03:24:25;;;;;;;20.55;6.15;;;;;;;20.33;63.66;100608.31;6067309;23;20023;-86
2021/07/17 03:26:52;;;;;;;17.42;6.00;;;;;;;20.31;63.96;100605.78;6067578;23;20026;-86
2021/07/17 03:29:18;;;;;;;21.23;6.47;;;;;;;20.29;63.66;100607.72;6067056;23;20027;-86
2021/07/17 03:31:45;;;;;;;20.63;6.40;;;;;;;20.28;63.84;100612.22;6065805;23;20030;-86
2021/07/17 03:34:12;;;;;;;18.17;6.13;;;;;;;20.27;63.86;100607.88;6065372;23;20083;-86
2021/07/17 03:36:38;;;;;;;24.83;7.13;;;;;;;20.27;63.78;100607.00;6065167;23;20027;-86
2021/07/17 03:39:09;;;;;;;22.02;6.28;;;;;;;20.26;63.80;100603.47;6067445;23;20082;-86
2021/07/17 03:41:37;;;;;;;16.33;5.97;;;;;;;20.25;64.10;100609.81;6067364;23;20358;-86
2021/07/17 03:44:06;;;;;;;20.50;6.13;;;;;;;20.24;63.94;100609.94;6065244;23;20065;-87
2021/07/17 03:46:33;;;;;;;21.42;6.88;;;;;;;20.23;63.79;100606.44;6066763;23;20023;-86
2021/07/17 03:48:59;;;;;;;19.90;6.38;;;;;;;20.21;63.92;100602.16;6065750;23;20038;-85
2021/07/17 03:51:26;;;;;;;22.67;6.68;;;;;;;20.17;63.83;100597.09;6066694;23;20030;-84
2021/07/17 03:53:53;;;;;;;24.77;7.20;;;;;;;20.16;63.92;100606.09;6066892;23;20031;-85
2021/07/17 03:56:19;;;;;;;25.20;6.50;;;;;;;20.14;64.16;100602.69;6067017;23;20023;-86
2021/07/17 03:58:46;;;;;;;18.67;6.07;;;;;;;20.13;63.85;100611.69;6066880;23;20035;-85
2021/07/17 04:01:12;;;;;;;19.48;6.40;;;;;;;20.10;64.08;100601.25;6065690;23;20034;-86
2021/07/17 04:03:39;;;;;;;18.92;6.63;;;;;;;20.08;64.37;100603.22;6066762;23;20463;-83
2021/07/17 04:06:06;;;;;;;21.02;6.30;;;;;;;20.07;64.20;100604.19;6065804;23;20049;-86
2021/07/17 04:08:33;;;;;;;19.55;6.75;;;;;;;20.05;64.22;100599.00;6067077;23;20355;-87
2021/07/17 04:10:59;;;;;;;19.95;6.00;;;;;;;20.05;64.32;100600.81;6067050;23;20023;-86
2021/07/17 04:13:26;;;;;;;17.25;5.70;;;;;;;20.02;64.11;100609.94;6066675;23;20467;-86
2021/07/17 04:15:54;;;;;;;20.85;5.80;;;;;;;19.99;64.21;100604.81;6066760;23;20046;-86
2021/07/17 04:18:21;;;;;;;16.63;6.20;;;;;;;19.97;64.36;100609.44;6065159;23;20022;-87
2021/07/17 04:20:47;;;;;;;20.13;5.88;;;;;;;19.95;63.92;100607.88;6065498;23;20027;-86
2021/07/17 04:23:14;;;;;;;15.43;5.65;;;;;;;19.91;64.35;100609.94;6066778;23;20042;-86
2021/07/17 04:25:40;;;;;;;16.80;6.25;;;;;;;19.88;64.29;100605.69;6064930;23;20476;-87
2021/07/17 04:28:07;;;;;;;21.27;6.18;;;;;;;19.84;64.23;100604.25;6066452;23;20034;-85
2021/07/17 04:30:34;;;;;;;17.50;5.70;;;;;;;19.82;64.45;100608.03;6065388;23;20406;-86
2021/07/17 04:33:00;;;;;;;19.17;6.38;;;;;;;19.78;64.69;100608.28;6067131;23;20022;-86
2021/07/17 04:35:27;;;;;;;18.85;6.40;;;;;;;19.75;64.89;100603.22;6066785;23;20023;-86
2021/07/17 04:37:53;;;;;;;14.63;5.65;;;;;;;19.76;64.96;100609.38;6065530;23;20026;-86
2021/07/17 04:40:20;;;;;;;21.92;5.95;;;;;;;19.75;64.94;100607.69;6065066;23;20023;-86
2021/07/17 04:42:47;;;;;;;19.42;5.38;;;;;;;19.75;65.05;100607.69;6064983;23;20356;-86
2021/07/17 04:45:14;;;;;;;17.88;5.90;;;;;;;19.76;65.50;100606.72;6065216;23;20027;-86
2021/07/17 04:47:40;;;;;;;18.48;5.65;;;;;;;19.77;65.46;100603.91;6065094;23;20488;-86
2021/07/17 04:50:08;;;;;;;16.98;6.03;;;;;;;19.80;65.35;100602.81;6065417;23;20328;-86
2021/07/17 04:52:35;;;;;;;13.00;5.47;;;;;;;19.83;65.25;100607.91;6066903;23;20038;-86
2021/07/17 04:55:01;;;;;;;20.25;5.63;;;;;;;19.85;65.22;100611.28;6065125;23;20321;-87
2021/07/17 04:57:28;;;;;;;20.30;5.80;;;;;;;19.87;65.24;100617.38;6064754;23;20532;-86
2021/07/17 04:59:54;;;;;;;18.02;5.60;;;;;;;19.89;65.22;100618.06;6065280;23;20358;-85
2021/07/17 05:02:21;;;;;;;13.88;5.90;;;;;;;19.91;65.50;100617.94;6065423;23;20022;-86
2021/07/17 05:04:48;;;;;;;23.23;6.10;;;;;;;19.93;65.24;100619.50;6064739;23;20469;-86
2021/07/17 05:07:15;;;;;;;19.58;6.00;;;;;;;19.96;65.42;100621.06;6066780;23;20407;-87
2021/07/17 05:09:41;;;;;;;16.90;6.15;;;;;;;19.98;65.58;100616.50;6068681;23;20027;-85
2021/07/17 05:12:08;;;;;;;15.60;5.78;;;;;;;20.02;65.63;100620.63;6067273;23;20027;-87
2021/07/17 05:14:35;;;;;;;15.98;5.72;;;;;;;20.05;65.42;100623.03;6066731;23;20423;-86
2021/07/17 05:17:01;;;;;;;20.95;6.38;;;;;;;20.11;65.52;100620.81;6068342;23;20026;-87
2021/07/17 05:19:28;;;;;;;16.27;4.88;;;;;;;20.14;65.39;100623.22;6068645;23;20350;-86
2021/07/17 05:21:55;;;;;;;15.57;4.57;;;;;;;20.20;65.50;100627.22;6067274;23;20031;-85
2021/07/17 05:24:22;;;;;;;17.17;5.70;;;;;;;20.23;65.41;100621.59;6066575;23;20022;-86
2021/07/17 05:26:48;;;;;;;13.40;5.35;;;;;;;20.28;65.11;100630.09;6069046;23;20035;-85
2021/07/17 05:29:15;;;;;;;14.57;4.75;;;;;;;20.30;65.20;100630.81;6068106;23;20340;-86
2021/07/17 05:31:42;;;;;;;17.38;5.18;;;;;;;20.34;65.24;100632.25;6068708;23;20026;-84
2021/07/17 05:34:08;;;;;;;16.38;4.93;;;;;;;20.38;64.96;100627.47;6068483;23;20098;-86
2021/07/17 05:36:35;;;;;;;18.55;5.40;;;;;;;20.42;65.14;100634.28;6068628;23;20050;-85
2021/07/17 05:39:02;;;;;;;16.25;5.50;;;;;;;20.47;64.95;100631.19;6067744;23;20467;-84
2021/07/17 05:41:29;;;;;;;19.40;5.97;;;;;;;20.51;64.97;100625.47;6068664;23;20027;-85
2021/07/17 05:43:55;;;;;;;14.77;4.82;;;;;;;20.55;64.64;100623.34;6068398;23;20027;-85
2021/07/17 05:46:22;;;;;;;16.70;5.30;;;;;;;20.59;64.68;100623.97;6066476;23;20027;-84
2021/07/17 05:48:48;;;;;;;14.98;5.28;;;;;;;20.61;64.44;100628.19;6066854;23;20026;-84
2021/07/17 05:51:15;;;;;;;14.95;4.88;;;;;;;20.65;64.72;100631.44;6066594;23;20027;-83
2021/07/17 05:53:42;;;;;;;13.32;4.90;;;;;;;20.68;64.60;100634.69;6068083;23;20031;-83
2021/07/17 05:56:09;;;;;;;15.90;5.20;;;;;;;20.72;64.60;100637.13;6067917;23;20467;-84
2021/07/17 05:58:35;;;;;;;13.10;5.05;;;;;;;20.75;64.59;100636.84;6067012;23;20039;-83
2021/07/17 06:01:02;;;;;;;13.30;4.63;;;;;;;20.79;64.72;100639.13;6068442;23;20038;-85
2021/07/17 06:03:28;;;;;;;18.92;5.07;;;;;;;20.84;64.64;100644.09;6066872;23;20058;-85
2021/07/17 06:05:55;;;;;;;16.05;4.72;;;;;;;20.89;64.60;100628.50;6066373;23;20041;-84
2021/07/17 06:08:23;;;;;;;12.98;4.85;;;;;;;20.94;64.47;100642.31;6066535;23;20026;-84
2021/07/17 06:10:50;;;;;;;12.75;4.75;;;;;;;21.01;64.56;100649.84;6068612;23;20023;-84
2021/07/17 06:13:16;;;;;;;18.02;5.13;;;;;;;21.05;64.33;100644.06;6066759;23;20030;-85
2021/07/17 06:15:43;;;;;;;13.23;4.85;;;;;;;21.10;64.46;100641.00;6066442;23;20027;-86
2021/07/17 06:18:10;;;;;;;11.77;4.70;;;;;;;21.14;64.23;100642.41;6066223;23;20058;-85
2021/07/17 06:20:36;;;;;;;14.48;5.05;;;;;;;21.21;64.23;100642.72;6067953;23;20027;-84
2021/07/17 06:23:03;;;;;;;15.00;5.20;;;;;;;21.26;64.38;100647.69;6067988;23;20042;-84
2021/07/17 06:25:30;;;;;;;14.35;5.05;;;;;;;21.32;64.19;100655.16;6067759;23;20033;-85
2021/07/17 06:27:56;;;;;;;16.00;5.05;;;;;;;21.37;64.06;100658.28;6067799;23;20027;-84
2021/07/17 06:30:23;;;;;;;13.60;4.47;;;;;;;21.42;64.10;100655.19;6068460;23;20023;-85
2021/07/17 06:32:49;;;;;;;11.85;4.25;;;;;;;21.50;64.05;100662.53;6066509;23;20031;-84
2021/07/17 06:35:16;;;;;;;15.23;4.90;;;;;;;21.56;63.93;100667.34;6066067;23;20022;-84
2021/07/17 06:37:43;;;;;;;14.88;4.72;;;;;;;21.61;63.80;100665.13;6068029;23;20022;-83
2021/07/17 06:40:12;;;;;;;14.23;4.50;;;;;;;21.67;63.85;100675.28;6067992;23;20478;-83
2021/07/17 06:42:47;;;;;;;16.35;4.45;;;;;;;21.70;63.89;100674.16;6068085;23;20030;-83
2021/07/17 06:45:14;;;;;;;15.55;4.85;;;;;;;21.79;63.67;100686.75;6066366;23;20614;-83
2021/07/17 06:47:41;;;;;;;14.57;4.70;;;;;;;21.85;63.28;100678.16;6068275;23;20027;-84
2021/07/17 06:50:09;;;;;;;14.35;4.78;;;;;;;21.92;63.16;100677.59;6068173;23;20030;-84
2021/07/17 06:52:36;;;;;;;15.05;4.82;;;;;;;21.94;62.93;100676.47;6066456;23;20038;-84
2021/07/17 06:55:04;;;;;;;18.75;4.80;;;;;;;21.98;63.30;100685.09;6067881;23;20023;-84
2021/07/17 06:57:31;;;;;;;18.60;4.30;;;;;;;22.02;63.18;100689.19;6067804;23;20030;-85
2021/07/17 06:59:58;;;;;;;16.10;3.83;;;;;;;22.06;62.92;100685.25;6066787;23;20055;-85
2021/07/17 07:02:25;;;;;;;12.85;3.75;;;;;;;22.10;62.61;100683.13;6068145;23;20030;-83
2021/07/17 07:04:52;;;;;;;12.07;4.25;;;;;;;22.12;62.50;100686.50;6067841;23;20117;-84
2021/07/17 07:07:18;;;;;;;16.13;4.55;;;;;;;22.13;62.16;100690.91;6068109;23;20459;-85
2021/07/17 07:09:45;;;;;;;15.02;4.55;;;;;;;22.15;62.32;100694.28;6068051;23;20027;-84
2021/07/17 07:12:11;;;;;;;13.43;4.05;;;;;;;22.15;62.29;100696.94;6067442;23;20034;-84
2021/07/17 07:14:38;;;;;;;13.98;3.90;;;;;;;22.17;62.36;100697.69;6065854;23;20548;-83
2021/07/17 07:17:05;;;;;;;8.55;3.33;;;;;;;22.17;62.17;100697.69;6067688;23;20034;-85
2021/07/17 07:19:31;;;;;;;16.55;3.92;;;;;;;22.19;62.19;100694.81;6067951;23;20034;-85
2021/07/17 07:21:58;;;;;;;10.90;3.30;;;;;;;22.20;62.26;100705.41;6067957;23;20086;-85
2021/07/17 07:24:26;;;;;;;13.93;3.90;;;;;;;22.20;62.09;100702.75;6067492;23;20030;-84
2021/07/17 07:26:53;;;;;;;13.40;3.40;;;;;;;22.22;62.42;100699.91;6067502;23;20029;-85
2021/07/17 07:29:19;;;;;;;10.98;3.95;;;;;;;22.25;62.20;100699.66;6067367;23;20031;-85
2021/07/17 07:31:46;;;;;;;12.23;3.72;;;;;;;22.27;62.19;100708.38;6065368;23;20027;-84
2021/07/17 07:34:13;;;;;;;11.25;3.33;;;;;;;22.29;61.88;100701.06;6067323;23;20034;-85
2021/07/17 07:36:40;;;;;;;8.80;3.47;;;;;;;22.31;62.19;100707.13;6065886;23;20396;-85
2021/07/17 07:39:06;;;;;;;14.63;3.85;;;;;;;22.34;61.92;100709.53;6067104;23;20034;-85
2021/07/17 07:41:33;;;;;;;12.32;3.33;;;;;;;22.38;61.94;100710.06;6067531;23;20034;-84
2021/07/17 07:44:00;;;;;;;9.55;3.03;;;;;;;22.39;61.94;100701.88;6066737;23;20023;-86
2021/07/17 07:46:27;;;;;;;10.55;3.20;;;;;;;22.44;61.83;100704.16;6067406;23;20042;-85
2021/07/17 07:48:54;;;;;;;11.13;3.50;;;;;;;22.48;62.04;100697.53;6067359;23;20027;-85
2021/07/17 07:51:20;;;;;;;9.35;3.85;;;;;;;22.52;62.08;100704.28;6064543;23;20042;-85
2021/07/17 07:53:47;;;;;;;8.65;3.03;;;;;;;22.56;62.25;100702.19;6064891;23;20027;-86
2021/07/17 07:56:13;;;;;;;11.95;3.42;;;;;;;22.62;61.90;100703.47;6066737;23;20030;-86
2021/07/17 07:58:40;;;;;;;10.80;3.45;;;;;;;22.67;61.89;100698.50;6067360;23;20022;-85
2021/07/17 08:01:07;;;;;;;10.52;3.08;;;;;;;22.72;61.35;100698.09;6067283;23;20045;-84
2021/07/17 08:03:34;;;;;;;8.57;2.90;;;;;;;22.78;61.62;100701.03;6067140;23;20026;-85
2021/07/17 08:06:01;;;;;;;9.63;3.05;;;;;;;22.86;61.24;100702.13;6065099;23;20047;-85
2021/07/17 08:08:27;;;;;;;7.43;2.70;;;;;;;22.92;61.40;100698.88;6063871;23;20023;-85
2021/07/17 08:10:55;;;;;;;13.02;2.72;;;;;;;22.98;61.07;100700.97;6066841;23;20026;-86
2021/07/17 08:13:24;;;;;;;10.35;2.88;;;;;;;23.06;61.19;100699.41;6065857;23;20027;-84
2021/07/17 08:15:51;;;;;;;9.88;2.75;;;;;;;23.12;61.01;100701.50;6066283;23;20077;-85
2021/07/17 08:18:18;;;;;;;7.85;2.95;;;;;;;23.17;60.88;100700.06;6064092;23;20109;-85
2021/07/17 08:20:44;;;;;;;5.38;2.15;;;;;;;23.23;61.04;100706.69;6067121;23;20333;-84
2021/07/17 08:23:11;;;;;;;8.45;2.53;;;;;;;23.30;60.87;100707.78;6066855;23;20035;-84
2021/07/17 08:25:38;;;;;;;7.50;2.53;;;;;;;23.37;60.45;100710.78;6066281;23;20351;-86
2021/07/17 08:28:05;;;;;;;6.63;2.65;;;;;;;23.46;60.74;100708.16;6065592;23;20023;-85
2021/07/17 08:30:37;;;;;;;8.50;2.95;;;;;;;23.53;60.17;100712.81;6067043;23;20037;-85
2021/07/17 08:33:04;;;;;;;9.73;2.40;;;;;;;23.62;60.58;100705.69;6066098;23;20039;-85
2021/07/17 08:35:31;;;;;;;6.03;2.22;;;;;;;23.71;60.14;100709.31;6065834;23;20027;-85
2021/07/17 08:37:58;;;;;;;10.20;2.88;;;;;;;23.78;59.84;100709.56;6066746;23;20031;-84
2021/07/17 08:40:26;;;;;;;7.50;2.63;;;;;;;23.86;59.62;100711.47;6067552;23;20389;-85
2021/07/17 08:42:52;;;;;;;7.30;2.55;;;;;;;23.92;59.83;100709.03;6067297;23;20065;-85
2021/07/17 08:45:22;;;;;;;9.35;2.50;;;;;;;23.99;59.63;100713.81;6069170;23;20031;-84
2021/07/17 08:47:52;;;;;;;9.10;2.30;;;;;;;24.06;59.28;100715.75;6069238;23;20022;-85
2021/07/17 08:50:22;;;;;;;7.25;2.28;;;;;;;24.15;59.17;100715.84;6066193;23;20023;-85
2021/07/17 08:52:52;;;;;;;8.15;2.65;;;;;;;24.22;58.93;100713.41;6069382;23;20023;-85
2021/07/17 08:55:19;;;;;;;8.30;2.10;;;;;;;24.29;58.66;100718.00;6068327;23;20027;-85
2021/07/17 08:57:45;;;;;;;6.90;2.22;;;;;;;24.37;58.70;100716.38;6067552;23;20037;-84
2021/07/17 09:00:25;;;;;;;7.90;2.47;;;;;;;24.42;58.18;100725.69;6067814;23;20454;-84
2021/07/17 09:03:05;;;;;;;7.30;2.33;;;;;;;24.49;58.28;100715.16;6069485;23;20030;-85
2021/07/17 09:05:36;;;;;;;9.60;2.25;;;;;;;24.59;58.06;100715.03;6068483;23;20061;-85
2021/07/17 09:08:03;;;;;;;5.85;2.30;;;;;;;24.66;57.98;100713.41;6068613;23;20554;-84
2021/07/17 09:10:37;;;;;;;5.53;2.45;;;;;;;24.70;58.27;100706.72;6068863;23;20106;-85
2021/07/17 09:13:19;;;;;;;8.48;2.20;;;;;;;24.77;57.89;100708.75;6068003;23;20027;-83
2021/07/17 09:15:57;;;;;;;7.75;1.90;;;;;;;24.87;57.74;100714.94;6066827;23;20033;-85
2021/07/17 09:18:28;;;;;;;8.57;2.20;;;;;;;24.95;57.84;100712.31;6067594;23;20098;-86
2021/07/17 09:21:04;;;;;;;10.95;2.30;;;;;;;25.00;57.82;100711.81;6068748;23;20035;-85
2021/07/17 09:23:37;;;;;;;8.98;2.40;;;;;;;25.10;57.33;100700.94;6070564;23;20022;-85
2021/07/17 09:26:18;;;;;;;5.32;1.95;;;;;;;25.15;57.43;100711.25;6069196;23;20351;-85
2021/07/17 09:28:56;;;;;;;5.93;1.67;;;;;;;25.23;57.32;100701.34;6070806;23;20030;-83
2021/07/17 09:31:24;;;;;;;5.45;1.95;;;;;;;25.33;56.85;100706.59;6068859;23;20467;-83
2021/07/17 09:33:51;;;;;;;6.15;1.95;;;;;;;25.41;57.19;100702.25;6071961;23;20026;-84
2021/07/17 09:36:18;;;;;;;3.85;1.70;;;;;;;25.49;57.33;100708.50;6071572;23;20022;-83
2021/07/17 09:38:50;;;;;;;6.47;1.85;;;;;;;25.56;56.31;100705.19;6071684;23;20116;-83
2021/07/17 09:41:18;;;;;;;6.20;1.63;;;;;;;25.67;56.74;100712.16;6072696;23;20054;-83
2021/07/17 09:43:45;;;;;;;5.38;1.52;;;;;;;25.78;56.77;100708.31;6072186;23;20027;-83
2021/07/17 09:46:26;;;;;;;5.90;1.95;;;;;;;25.84;55.77;100707.66;6071602;23;20086;-83
2021/07/17 09:48:55;;;;;;;6.55;1.80;;;;;;;25.95;55.59;100709.19;6071072;23;20029;-87
2021/07/17 09:51:26;;;;;;;4.10;1.48;;;;;;;26.02;55.32;100710.22;6069309;23;20029;-83
2021/07/17 09:54:13;;;;;;;7.20;1.88;;;;;;;26.04;55.13;100708.19;6071284;23;20023;-82
2021/07/17 09:56:41;;;;;;;4.63;1.63;;;;;;;26.15;54.91;100709.72;6070924;23;20026;-83
2021/07/17 09:59:10;;;;;;;5.35;1.70;;;;;;;26.23;55.47;100719.66;6071775;23;20034;-83
2021/07/17 10:01:41;;;;;;;5.20;1.73;;;;;;;26.28;54.68;100709.25;6072168;23;20030;-82
2021/07/17 10:04:11;;;;;;;5.13;1.90;;;;;;;26.36;55.61;100705.72;6070688;23;20026;-82
2021/07/17 10:06:43;;;;;;;7.88;2.15;;;;;;;26.45;54.80;100706.53;6073030;23;20023;-85
2021/07/17 10:09:12;;;;;;;3.88;1.65;;;;;;;26.52;54.43;100700.31;6071495;23;20045;-82
2021/07/17 10:11:40;;;;;;;6.07;2.30;;;;;;;26.61;54.40;100709.25;6071814;23;20027;-81
2021/07/17 10:14:16;;;;;;;4.63;1.63;;;;;;;26.67;53.78;100699.63;6070251;23;20038;-82
2021/07/17 10:16:45;;;;;;;4.78;1.77;;;;;;;26.79;53.76;100695.56;6071115;23;20019;-82
2021/07/17 10:19:14;;;;;;;4.00;1.40;;;;;;;26.86;52.59;100695.72;6071244;23;20037;-81
2021/07/17 10:21:41;;;;;;;3.55;1.63;;;;;;;26.94;53.89;100694.84;6071150;23;20023;-83
2021/07/17 10:24:08;;;;;;;4.88;1.65;;;;;;;27.02;53.56;100696.72;6070193;23;20367;-83
2021/07/17 10:26:36;;;;;;;3.67;1.40;;;;;;;27.10;53.38;100704.78;6072326;23;20470;-82
2021/07/17 10:29:06;;;;;;;4.30;1.80;;;;;;;27.16;52.95;100704.09;6071723;23;20030;-82
2021/07/17 10:31:34;;;;;;;5.68;1.90;;;;;;;27.23;52.97;100706.09;6071787;23;20030;-81
2021/07/17 10:34:02;;;;;;;3.03;1.52;;;;;;;27.29;52.90;100702.72;6069140;23;20030;-82
2021/07/17 10:36:33;;;;;;;5.35;1.63;;;;;;;27.36;52.96;100692.03;6069726;23;20343;-81
2021/07/17 10:39:03;;;;;;;4.18;1.75;;;;;;;27.42;53.42;100694.03;6072638;23;20455;-81
2021/07/17 10:41:35;;;;;;;4.75;1.42;;;;;;;27.52;53.34;100696.50;6072414;23;20034;-82
2021/07/17 10:44:03;;;;;;;3.50;1.40;;;;;;;27.64;53.20;100689.72;6072205;23;20471;-83
2021/07/17 10:46:37;;;;;;;3.92;1.60;;;;;;;27.76;53.02;100700.13;6071342;23;20023;-83
2021/07/17 10:49:07;;;;;;;5.25;1.40;;;;;;;27.92;52.39;100694.63;6070892;23;20046;-83
2021/07/17 10:51:38;;;;;;;3.55;1.30;;;;;;;28.10;51.71;100696.19;6072314;23;20027;-83
2021/07/17 10:54:07;;;;;;;3.85;1.50;;;;;;;28.35;52.42;100699.59;6070258;23;20022;-83
2021/07/17 10:56:37;;;;;;;3.95;1.20;;;;;;;28.67;52.12;100691.31;6071438;23;20038;-83
2021/07/17 10:59:12;;;;;;;4.47;1.60;;;;;;;29.06;51.53;100686.72;6072000;23;20037;-83
2021/07/17 11:01:58;;;;;;;3.50;1.40;;;;;;;29.54;50.84;100693.59;6071836;23;20079;-83
2021/07/17 11:04:44;;;;;;;4.00;1.40;;;;;;;30.12;50.19;100681.06;6072642;23;20340;-81
2021/07/17 11:07:16;;;;;;;3.45;1.10;;;;;;;30.68;49.26;100687.56;6073741;23;20078;-84
2021/07/17 11:10:02;;;;;;;3.92;1.17;;;;;;;31.23;48.48;100681.44;6073153;23;20031;-82
2021/07/17 11:12:42;;;;;;;3.63;1.30;;;;;;;31.75;47.43;100689.16;6073153;23;20026;-83
2021/07/17 11:15:09;;;;;;;2.88;1.30;;;;;;;32.20;46.12;100682.34;6070763;23;20027;-82
2021/07/17 11:17:54;;;;;;;4.55;1.17;;;;;;;32.59;45.45;100691.56;6071886;23;20034;-82
2021/07/17 11:20:27;;;;;;;1.77;1.00;;;;;;;33.00;45.19;100689.63;6072456;23;20027;-82
2021/07/17 11:23:04;;;;;;;7.10;1.30;;;;;;;33.36;43.95;100681.09;6069482;23;20022;-84